createdAt,value
2022-12-24T00:02:25.467Z,20.46
2022-12-24T00:05:27.915Z,20.43
2022-12-24T00:08:30.601Z,20.37
2022-12-24T00:11:34.040Z,20.50
2022-12-24T00:14:37.261Z,20.44
2022-12-24T00:17:39.183Z,20.56
2022-12-24T00:20:41.976Z,20.19
2022-12-24T00:23:45.705Z,20.10
2022-12-24T00:26:48.546Z,19.96
2022-12-24T00:29:51.017Z,19.75
2022-12-24T00:32:53.631Z,19.85
2022-12-24T00:35:55.713Z,19.83
2022-12-24T00:38:58.111Z,19.81
2022-12-24T00:42:00.115Z,19.71
2022-12-24T00:45:02.550Z,19.71
2022-12-24T00:48:05.131Z,19.68
2022-12-24T00:51:08.026Z,19.66
2022-12-24T00:54:10.330Z,19.63
2022-12-24T00:57:12.957Z,19.61
2022-12-24T01:00:17.594Z,19.55
2022-12-24T01:03:20.478Z,19.57
2022-12-24T01:06:23.010Z,19.50
2022-12-24T01:09:25.769Z,19.52
2022-12-24T01:12:27.998Z,19.42
2022-12-24T01:15:30.914Z,19.39
2022-12-24T01:18:33.214Z,19.39
2022-12-24T01:21:35.497Z,19.38
2022-12-24T01:24:40.518Z,19.35
2022-12-24T01:27:42.928Z,19.32
2022-12-24T01:30:45.098Z,19.34
2022-12-24T01:33:49.779Z,19.28
2022-12-24T01:36:52.190Z,19.28
2022-12-24T01:40:14.795Z,19.27
2022-12-24T01:43:24.481Z,19.25
2022-12-24T01:46:32.372Z,19.22
2022-12-24T01:49:35.665Z,19.21
2022-12-24T01:52:38.446Z,19.17
2022-12-24T01:55:42.407Z,19.07
2022-12-24T01:58:51.499Z,19.11
2022-12-24T02:01:54.628Z,19.12
2022-12-24T02:05:06.587Z,19.14
2022-12-24T02:08:09.359Z,19.12
2022-12-24T02:11:22.661Z,19.10
2022-12-24T02:14:29.616Z,19.08
2022-12-24T02:17:54.659Z,19.08
2022-12-24T02:21:34.715Z,19.06
2022-12-24T02:24:55.902Z,19.06
2022-12-24T02:28:08.244Z,19.03
2022-12-24T02:31:32.264Z,19.03
2022-12-24T02:35:16.176Z,19.00
2022-12-24T02:38:40.908Z,18.97
2022-12-24T02:42:07.369Z,18.93
2022-12-24T02:45:15.534Z,18.93
2022-12-24T02:48:20.279Z,18.91
2022-12-24T02:51:24.965Z,18.90
2022-12-24T02:54:27.777Z,18.87
2022-12-24T02:57:55.254Z,18.86
2022-12-24T03:01:20.458Z,18.91
2022-12-24T03:04:41.135Z,18.86
2022-12-24T03:08:11.176Z,18.84
2022-12-24T03:11:15.606Z,18.84
2022-12-24T03:14:18.543Z,18.83
2022-12-24T03:17:21.560Z,18.84
2022-12-24T03:20:31.727Z,18.81
2022-12-24T03:23:35.689Z,18.80
2022-12-24T03:26:39.516Z,18.77
2022-12-24T03:29:42.584Z,18.76
2022-12-24T03:32:46.544Z,18.77
2022-12-24T03:35:48.876Z,18.73
2022-12-24T03:38:51.181Z,18.73
2022-12-24T03:41:53.577Z,18.70
2022-12-24T03:44:55.998Z,18.66
2022-12-24T03:47:58.619Z,18.69
2022-12-24T03:51:00.609Z,18.70
2022-12-24T03:54:03.333Z,18.69
2022-12-24T03:57:05.695Z,18.69
2022-12-24T04:00:08.755Z,18.64
2022-12-24T04:03:16.727Z,18.66
2022-12-24T04:06:19.365Z,18.67
2022-12-24T04:09:21.414Z,18.64
2022-12-24T04:12:23.807Z,18.61
2022-12-24T04:15:26.071Z,18.64
2022-12-24T04:18:28.841Z,18.64
2022-12-24T04:21:30.835Z,18.66
2022-12-24T04:24:33.212Z,18.63
2022-12-24T04:27:35.282Z,18.64
2022-12-24T04:30:41.440Z,18.61
2022-12-24T04:33:44.105Z,18.64
2022-12-24T04:36:47.028Z,18.64
2022-12-24T04:39:49.212Z,18.63
2022-12-24T04:42:52.490Z,18.59
2022-12-24T04:45:54.951Z,18.59
2022-12-24T04:48:58.034Z,18.49
2022-12-24T04:52:00.057Z,18.61
2022-12-24T04:55:02.964Z,18.63
2022-12-24T04:58:05.427Z,18.59
2022-12-24T05:01:12.760Z,18.57
2022-12-24T05:04:14.980Z,18.60
2022-12-24T05:07:17.362Z,18.59
2022-12-24T05:10:20.029Z,18.60
2022-12-24T05:13:22.553Z,18.57
2022-12-24T05:16:25.143Z,18.57
2022-12-24T05:19:27.728Z,18.57
2022-12-24T05:22:48.632Z,18.55
2022-12-24T05:26:09.825Z,18.59
2022-12-24T05:29:12.680Z,18.60
2022-12-24T05:32:15.129Z,18.55
2022-12-24T05:35:17.064Z,18.55
2022-12-24T05:38:19.433Z,18.55
2022-12-24T05:41:21.769Z,18.53
2022-12-24T05:44:27.733Z,18.55
2022-12-24T05:47:29.890Z,18.55
2022-12-24T05:50:32.517Z,18.59
2022-12-24T05:53:41.284Z,18.52
2022-12-24T05:56:43.739Z,18.52
2022-12-24T05:59:45.791Z,18.53
2022-12-24T06:02:48.715Z,18.55
2022-12-24T06:05:59.156Z,18.55
2022-12-24T06:09:01.486Z,18.53
2022-12-24T06:12:03.738Z,18.53
2022-12-24T06:15:07.406Z,18.55
2022-12-24T06:18:09.674Z,18.53
2022-12-24T06:21:12.799Z,18.52
2022-12-24T06:24:15.165Z,18.53
2022-12-24T06:27:17.844Z,18.52
2022-12-24T06:30:19.905Z,18.50
2022-12-24T06:33:22.294Z,18.50
2022-12-24T06:36:26.126Z,18.50
2022-12-24T06:39:28.791Z,18.53
2022-12-24T06:42:30.839Z,18.55
2022-12-24T06:45:33.394Z,18.56
2022-12-24T06:48:35.288Z,18.53
2022-12-24T06:51:37.599Z,18.47
2022-12-24T06:54:39.559Z,18.52
2022-12-24T06:57:43.009Z,18.47
2022-12-24T07:00:44.909Z,18.49
2022-12-24T07:03:48.405Z,18.46
2022-12-24T07:06:51.106Z,18.46
2022-12-24T07:09:53.440Z,18.45
2022-12-24T07:12:55.468Z,18.46
2022-12-24T07:16:03.648Z,18.50
2022-12-24T07:19:05.965Z,18.49
2022-12-24T07:22:15.015Z,18.52
2022-12-24T07:25:17.670Z,18.46
2022-12-24T07:28:27.270Z,18.50
2022-12-24T07:31:30.329Z,18.52
2022-12-24T07:34:32.703Z,18.52
2022-12-24T07:37:34.734Z,18.47
2022-12-24T07:40:37.152Z,18.49
2022-12-24T07:43:41.757Z,18.50
2022-12-24T07:46:44.785Z,18.52
2022-12-24T07:49:46.907Z,18.50
2022-12-24T07:52:49.371Z,18.47
2022-12-24T07:55:51.856Z,18.43
2022-12-24T07:58:54.522Z,18.46
2022-12-24T08:01:56.912Z,18.50
2022-12-24T08:04:59.414Z,18.52
2022-12-24T08:08:01.616Z,18.45
2022-12-24T08:11:06.743Z,18.46
2022-12-24T08:14:08.940Z,18.46
2022-12-24T08:17:11.423Z,18.49
2022-12-24T08:20:13.583Z,18.47
2022-12-24T08:23:16.601Z,18.46
2022-12-24T08:26:18.651Z,18.53
2022-12-24T08:29:21.028Z,18.47
2022-12-24T08:32:23.114Z,18.53
2022-12-24T08:35:26.214Z,18.55
2022-12-24T08:38:28.666Z,18.53
2022-12-24T08:41:32.311Z,18.52
2022-12-24T08:44:34.324Z,18.57
2022-12-24T08:47:36.573Z,18.52
2022-12-24T08:50:41.086Z,18.53
2022-12-24T08:53:44.107Z,18.53
2022-12-24T08:56:46.871Z,18.49
2022-12-24T08:59:49.769Z,18.49
2022-12-24T09:02:52.119Z,18.49
2022-12-24T09:05:54.742Z,18.52
2022-12-24T09:08:57.922Z,18.55
2022-12-24T09:12:00.656Z,18.52
2022-12-24T09:15:04.606Z,18.52
2022-12-24T09:18:07.714Z,18.56
2022-12-24T09:21:14.835Z,18.56
2022-12-24T09:24:17.162Z,18.55
2022-12-24T09:27:19.164Z,18.55
2022-12-24T09:30:22.040Z,18.52
2022-12-24T09:33:24.758Z,18.49
2022-12-24T09:36:30.170Z,18.64
2022-12-24T09:39:32.706Z,18.59
2022-12-24T09:42:55.091Z,18.59
2022-12-24T09:45:57.430Z,18.53
2022-12-24T09:49:05.788Z,18.52
2022-12-24T09:52:16.965Z,18.56
2022-12-24T09:55:31.059Z,18.52
2022-12-24T09:58:56.122Z,18.55
2022-12-24T10:02:01.310Z,18.55
2022-12-24T10:05:03.990Z,18.67
2022-12-24T10:08:12.406Z,18.67
2022-12-24T10:11:44.558Z,18.87
2022-12-24T10:14:52.284Z,18.99
2022-12-24T10:18:17.806Z,19.04
2022-12-24T10:21:46.197Z,19.18
2022-12-24T10:25:18.552Z,19.24
2022-12-24T10:28:28.802Z,19.34
2022-12-24T10:31:34.685Z,19.15
2022-12-24T10:34:44.585Z,19.11
2022-12-24T10:37:49.152Z,19.07
2022-12-24T10:40:56.897Z,19.04
2022-12-24T10:44:00.105Z,18.99
2022-12-24T10:47:05.602Z,19.00
2022-12-24T10:50:13.913Z,18.96
2022-12-24T10:53:45.122Z,18.97
2022-12-24T10:57:02.567Z,19.00
2022-12-24T11:00:07.909Z,18.96
2022-12-24T11:03:13.158Z,18.93
2022-12-24T11:06:21.455Z,18.94
2022-12-24T11:09:54.158Z,18.89
2022-12-24T11:13:27.722Z,18.93
2022-12-24T11:16:36.974Z,18.96
2022-12-24T11:19:40.553Z,19.11
2022-12-24T11:22:48.550Z,19.24
2022-12-24T11:25:52.097Z,19.32
2022-12-24T11:29:16.666Z,19.44
2022-12-24T11:32:22.987Z,19.50
2022-12-24T11:35:26.769Z,19.50
2022-12-24T11:38:31.365Z,19.61
2022-12-24T11:41:38.235Z,19.62
2022-12-24T11:44:48.832Z,19.68
2022-12-24T11:47:52.471Z,19.79
2022-12-24T11:51:07.661Z,19.66
2022-12-24T11:54:24.386Z,19.75
2022-12-24T11:57:35.426Z,19.62
2022-12-24T12:00:40.459Z,19.61
2022-12-24T12:03:55.238Z,19.50
2022-12-24T12:07:08.240Z,19.47
2022-12-24T12:10:23.655Z,19.42
2022-12-24T12:13:38.384Z,19.38
2022-12-24T12:17:15.579Z,19.41
2022-12-24T12:20:33.518Z,19.39
2022-12-24T12:23:40.911Z,19.22
2022-12-24T12:26:45.766Z,19.06
2022-12-24T12:30:04.590Z,19.21
2022-12-24T12:33:21.426Z,19.36
2022-12-24T12:36:31.481Z,19.30
2022-12-24T12:39:38.319Z,19.30
2022-12-24T12:42:53.177Z,19.31
2022-12-24T12:46:20.663Z,19.28
2022-12-24T12:49:32.164Z,19.31
2022-12-24T12:53:01.191Z,19.30
2022-12-24T12:56:27.278Z,19.25
2022-12-24T12:59:36.621Z,19.27
2022-12-24T13:03:05.006Z,19.28
2022-12-24T13:06:41.571Z,19.25
2022-12-24T13:09:56.355Z,19.21
2022-12-24T13:13:35.918Z,19.20
2022-12-24T13:17:08.355Z,19.21
2022-12-24T13:20:20.457Z,19.17
2022-12-24T13:23:25.219Z,19.15
2022-12-24T13:26:27.604Z,19.14
2022-12-24T13:29:43.696Z,19.15
2022-12-24T13:32:51.576Z,19.17
2022-12-24T13:36:02.932Z,19.15
2022-12-24T13:39:06.794Z,19.17
2022-12-24T13:42:09.655Z,19.15
2022-12-24T13:45:30.472Z,19.17
2022-12-24T13:48:34.960Z,19.15
2022-12-24T13:51:37.184Z,19.15
2022-12-24T13:54:48.005Z,19.11
2022-12-24T13:57:57.893Z,19.12
2022-12-24T14:01:04.668Z,19.11
2022-12-24T14:04:10.823Z,19.07
2022-12-24T14:07:20.644Z,19.07
2022-12-24T14:10:28.901Z,19.07
2022-12-24T14:13:40.808Z,19.04
2022-12-24T14:16:49.732Z,19.06
2022-12-24T14:19:55.571Z,19.01
2022-12-24T14:22:58.040Z,19.01
2022-12-24T14:26:02.630Z,19.03
2022-12-24T14:29:07.711Z,19.00
2022-12-24T14:32:16.437Z,19.01
2022-12-24T14:35:22.881Z,18.97
2022-12-24T14:38:27.243Z,18.99
2022-12-24T14:41:57.834Z,18.97
2022-12-24T14:45:30.760Z,18.94
2022-12-24T14:48:52.193Z,18.94
2022-12-24T14:52:37.659Z,18.94
2022-12-24T14:55:46.829Z,18.96
2022-12-24T14:58:50.478Z,18.89
2022-12-24T15:01:52.688Z,18.91
2022-12-24T15:05:25.166Z,18.89
2022-12-24T15:08:38.757Z,18.84
2022-12-24T15:11:44.903Z,18.84
2022-12-24T15:14:47.569Z,18.81
2022-12-24T15:17:51.733Z,18.84
2022-12-24T15:21:03.656Z,18.79
2022-12-24T15:24:28.564Z,18.79
2022-12-24T15:27:39.286Z,18.76
2022-12-24T15:30:41.761Z,18.71
2022-12-24T15:33:46.387Z,18.70
2022-12-24T15:36:49.977Z,18.70
2022-12-24T15:39:57.063Z,18.69
2022-12-24T15:43:00.731Z,18.67
2022-12-24T15:46:03.970Z,18.70
2022-12-24T15:49:07.116Z,18.69
2022-12-24T15:52:14.338Z,18.64
2022-12-24T15:55:36.664Z,18.64
2022-12-24T15:58:42.489Z,18.61
2022-12-24T16:01:47.500Z,18.61
2022-12-24T16:04:49.791Z,18.60
2022-12-24T16:08:08.102Z,18.61
2022-12-24T16:11:24.148Z,18.64
2022-12-24T16:14:27.628Z,18.60
2022-12-24T16:17:35.120Z,18.57
2022-12-24T16:20:37.678Z,18.56
2022-12-24T16:23:46.957Z,18.55
2022-12-24T16:26:52.553Z,18.56
2022-12-24T16:29:55.074Z,18.53
2022-12-24T16:32:57.466Z,18.55
2022-12-24T16:35:59.703Z,18.50
2022-12-24T16:39:20.738Z,18.50
2022-12-24T16:42:41.935Z,18.50
2022-12-24T16:45:46.779Z,18.45
2022-12-24T16:48:51.097Z,18.46
2022-12-24T16:51:54.583Z,18.45
2022-12-24T16:54:59.047Z,18.45
2022-12-24T16:58:01.749Z,18.43
2022-12-24T17:01:09.037Z,18.43
2022-12-24T17:04:12.850Z,18.39
2022-12-24T17:07:18.976Z,18.42
2022-12-24T17:10:22.163Z,18.39
2022-12-24T17:13:24.460Z,18.33
2022-12-24T17:16:27.333Z,18.32
2022-12-24T17:19:30.351Z,18.30
2022-12-24T17:22:33.169Z,18.32
2022-12-24T17:25:36.139Z,18.32
2022-12-24T17:28:39.631Z,18.29
2022-12-24T17:31:43.174Z,18.35
2022-12-24T17:34:46.108Z,18.32
2022-12-24T17:37:48.022Z,18.30
2022-12-24T17:40:51.060Z,18.32
2022-12-24T17:43:53.413Z,18.29
2022-12-24T17:46:56.187Z,18.30
2022-12-24T17:49:58.537Z,18.30
2022-12-24T17:53:01.164Z,18.29
2022-12-24T17:56:03.792Z,18.28
2022-12-24T17:59:06.330Z,18.30
2022-12-24T18:02:12.269Z,18.26
2022-12-24T18:05:17.008Z,18.24
2022-12-24T18:11:46.754Z,18.18
2022-12-24T18:14:48.833Z,18.13
2022-12-24T18:17:53.716Z,18.15
2022-12-24T18:20:55.944Z,18.13
2022-12-24T18:24:00.309Z,18.15
2022-12-24T18:27:03.315Z,18.16
2022-12-24T18:30:08.595Z,18.16
2022-12-24T18:33:10.655Z,18.15
2022-12-24T18:36:13.914Z,18.15
2022-12-24T18:39:16.585Z,18.12
2022-12-24T18:42:20.240Z,18.13
2022-12-24T18:45:22.700Z,18.09
2022-12-24T18:48:25.812Z,18.06
2022-12-24T18:51:35.012Z,18.05
2022-12-24T18:54:41.955Z,18.05
2022-12-24T18:57:44.495Z,18.05
2022-12-24T19:00:47.695Z,18.02
2022-12-24T19:03:50.604Z,18.04
2022-12-24T19:06:54.131Z,18.01
2022-12-24T19:09:56.712Z,18.02
2022-12-24T19:12:59.196Z,17.99
2022-12-24T19:16:05.072Z,17.99
2022-12-24T19:19:11.462Z,17.99
2022-12-24T19:22:15.111Z,17.98
2022-12-24T19:25:17.597Z,17.99
2022-12-24T19:28:25.583Z,17.98
2022-12-24T19:31:28.998Z,17.96
2022-12-24T19:34:31.178Z,17.95
2022-12-24T19:37:33.563Z,17.95
2022-12-24T19:40:39.046Z,17.96
2022-12-24T19:43:50.104Z,17.98
2022-12-24T19:46:52.165Z,17.98
2022-12-24T19:49:54.721Z,17.95
2022-12-24T19:52:56.992Z,17.96
2022-12-24T19:55:59.438Z,17.95
2022-12-24T19:59:04.028Z,17.94
2022-12-24T20:02:07.170Z,17.98
2022-12-24T20:05:09.417Z,17.94
2022-12-24T20:08:12.512Z,17.98
2022-12-24T20:11:16.950Z,17.95
2022-12-24T20:14:19.744Z,17.94
2022-12-24T20:17:21.779Z,17.92
2022-12-24T20:20:24.611Z,17.92
2022-12-24T20:23:27.315Z,17.95
2022-12-24T20:26:31.195Z,17.99
2022-12-24T20:29:33.177Z,18.04
2022-12-24T20:32:36.475Z,18.04
2022-12-24T20:35:39.243Z,18.01
2022-12-24T20:38:42.042Z,17.99
2022-12-24T20:41:44.425Z,17.99
2022-12-24T20:44:49.763Z,18.01
2022-12-24T20:47:52.187Z,18.02
2022-12-24T20:50:55.050Z,18.04
2022-12-24T20:54:00.993Z,18.05
2022-12-24T20:57:03.585Z,18.02
2022-12-24T21:00:06.357Z,18.04
2022-12-24T21:03:09.552Z,18.04
2022-12-24T21:06:11.752Z,18.02
2022-12-24T21:09:14.243Z,18.04
2022-12-24T21:12:34.901Z,18.06
2022-12-24T21:15:40.115Z,18.08
2022-12-24T21:18:42.829Z,18.06
2022-12-24T21:21:45.630Z,18.08
2022-12-24T21:24:47.858Z,18.04
2022-12-24T21:27:51.493Z,18.04
2022-12-24T21:30:53.588Z,18.05
2022-12-24T21:33:57.281Z,18.05
2022-12-24T21:36:59.257Z,18.04
2022-12-24T21:40:02.436Z,18.04
2022-12-24T21:43:05.406Z,18.01
2022-12-24T21:46:14.830Z,18.01
2022-12-24T21:49:37.486Z,18.01
2022-12-24T21:52:40.201Z,17.99
2022-12-24T21:55:42.238Z,18.02
2022-12-24T21:58:45.854Z,18.01
2022-12-24T22:01:49.396Z,17.99
2022-12-24T22:04:52.197Z,17.98
2022-12-24T22:08:13.814Z,18.01
2022-12-24T22:11:37.105Z,17.98
2022-12-24T22:14:39.249Z,17.94
2022-12-24T22:17:41.552Z,17.91
2022-12-24T22:20:45.285Z,17.85
2022-12-24T22:23:47.749Z,17.85
2022-12-24T22:26:51.857Z,17.82
2022-12-24T22:29:55.696Z,17.81
2022-12-24T22:32:59.635Z,17.82
2022-12-24T22:36:06.431Z,17.79
2022-12-24T22:39:09.462Z,17.81
2022-12-24T22:42:11.756Z,17.79
2022-12-24T22:45:20.050Z,17.77
2022-12-24T22:48:25.006Z,17.78
2022-12-24T22:51:27.670Z,17.78
2022-12-24T22:54:30.152Z,17.81
2022-12-24T22:57:32.361Z,17.77
2022-12-24T23:00:44.821Z,17.73
2022-12-24T23:03:47.259Z,17.70
2022-12-24T23:06:49.950Z,17.68
2022-12-24T23:09:52.355Z,17.73
2022-12-24T23:13:15.566Z,17.70
2022-12-24T23:16:18.128Z,17.73
2022-12-24T23:19:23.984Z,17.75
2022-12-24T23:22:26.059Z,17.77
2022-12-24T23:25:28.480Z,17.70
2022-12-24T23:28:30.679Z,17.73
2022-12-24T23:31:35.104Z,17.67
2022-12-24T23:34:38.370Z,17.65
2022-12-24T23:37:42.261Z,17.70
2022-12-24T23:40:44.266Z,17.70
2022-12-24T23:43:46.839Z,17.70
2022-12-24T23:46:48.775Z,17.64
2022-12-24T23:49:52.084Z,17.70
2022-12-24T23:52:54.156Z,17.64
2022-12-24T23:55:56.896Z,17.60
2022-12-24T23:58:58.972Z,17.64
